Time;durP1;ratioP1;P1;durP2;ratioP2;P2;SDS_P1;SDS_P2;PMS_P1;PMS_P2;Temp;Humidity;BMP_temperature;BMP_pressure;BME280_temperature;BME280_humidity;BME280_pressure;Samples;Min_cycle;Max_cycle;Signal;HPM_P1;HPM_P2
2021/05/31 00:01:40;;;;;;;2.58;0.80;;;12.90;63.60;;;;;;5079925;28;20039;-84
2021/05/31 00:04:06;;;;;;;4.90;1.05;;;13.00;63.70;;;;;;5078454;28;20078;-84
2021/05/31 00:06:39;;;;;;;1.77;0.70;;;13.10;64.00;;;;;;5079291;28;20418;-84
2021/05/31 00:09:05;;;;;;;1.80;0.88;;;12.80;63.60;;;;;;5079389;28;20035;-84
2021/05/31 00:11:30;;;;;;;3.75;1.00;;;12.80;63.50;;;;;;5060825;28;20029;-84
2021/05/31 00:13:57;;;;;;;3.33;0.60;;;12.80;63.70;;;;;;5078799;28;20021;-84
2021/05/31 00:16:23;;;;;;;4.43;1.08;;;12.70;64.20;;;;;;5079636;28;20031;-84
2021/05/31 00:18:48;;;;;;;1.48;0.70;;;12.70;63.80;;;;;;5078031;28;20021;-84
2021/05/31 00:21:14;;;;;;;2.53;0.80;;;12.70;63.90;;;;;;5079132;28;20044;-84
2021/05/31 00:23:40;;;;;;;1.75;0.70;;;12.70;64.10;;;;;;5077945;28;20132;-84
2021/05/31 00:26:05;;;;;;;1.98;0.57;;;12.70;64.80;;;;;;5061614;28;20513;-84
2021/05/31 00:28:31;;;;;;;1.60;0.52;;;12.70;64.50;;;;;;5080024;28;20036;-84
2021/05/31 00:30:57;;;;;;;2.45;1.00;;;12.60;64.50;;;;;;5061625;28;20028;-85
2021/05/31 00:33:22;;;;;;;2.10;0.60;;;12.60;65.20;;;;;;5079170;28;20037;-84
2021/05/31 00:35:48;;;;;;;2.00;0.75;;;12.60;64.60;;;;;;5063419;28;20032;-84
2021/05/31 00:38:14;;;;;;;2.15;0.70;;;12.50;64.90;;;;;;5097371;28;20027;-84
2021/05/31 00:40:39;;;;;;;3.72;0.80;;;12.50;65.10;;;;;;5079323;28;20025;-85
2021/05/31 00:43:05;;;;;;;2.78;0.93;;;12.50;65.30;;;;;;5061679;28;20031;-85
2021/05/31 00:45:31;;;;;;;4.25;0.95;;;12.40;64.90;;;;;;5072479;28;20066;-84
2021/05/31 00:47:56;;;;;;;1.67;0.70;;;12.40;65.90;;;;;;5066298;28;20035;-84
2021/05/31 00:50:22;;;;;;;2.70;1.05;;;12.30;65.50;;;;;;5060924;28;20040;-84
2021/05/31 00:52:48;;;;;;;2.47;0.70;;;12.30;65.80;;;;;;5079287;28;20100;-84
2021/05/31 00:55:14;;;;;;;2.50;0.80;;;12.30;66.10;;;;;;5071626;28;20024;-84
2021/05/31 00:57:39;;;;;;;2.53;0.80;;;12.30;65.90;;;;;;5081303;28;20035;-84
2021/05/31 01:00:07;;;;;;;3.58;1.00;;;12.30;66.10;;;;;;5082070;28;20052;-85
2021/05/31 01:02:33;;;;;;;2.28;1.00;;;12.30;66.50;;;;;;5078382;28;21240;-84
2021/05/31 01:04:58;;;;;;;2.15;0.70;;;12.30;66.40;;;;;;5078311;28;20582;-84
2021/05/31 01:07:42;;;;;;;2.60;0.80;;;12.20;66.90;;;;;;5079578;28;20036;-84
2021/05/31 01:10:25;;;;;;;3.45;0.70;;;12.20;66.60;;;;;;5079178;28;20056;-85
2021/05/31 01:13:06;;;;;;;2.85;0.63;;;12.10;66.70;;;;;;5061510;28;20032;-84
2021/05/31 01:15:40;;;;;;;2.58;0.90;;;12.10;66.90;;;;;;5072879;28;20029;-84
2021/05/31 01:18:28;;;;;;;1.33;0.60;;;12.10;67.20;;;;;;5073582;28;20101;-84
2021/05/31 01:21:24;;;;;;;3.00;0.80;;;12.10;67.30;;;;;;5073716;28;20071;-84
2021/05/31 01:24:01;;;;;;;3.20;0.98;;;12.10;67.30;;;;;;5055296;28;20035;-84
2021/05/31 01:26:38;;;;;;;2.55;0.95;;;12.10;67.70;;;;;;5077264;28;20373;-84
2021/05/31 01:29:06;;;;;;;2.47;0.60;;;12.00;68.10;;;;;;5060107;28;20500;-84
2021/05/31 01:31:52;;;;;;;2.63;0.80;;;11.90;68.30;;;;;;5059802;28;20032;-84
2021/05/31 01:34:28;;;;;;;3.53;1.23;;;11.90;67.60;;;;;;5078006;28;20024;-84
2021/05/31 01:37:00;;;;;;;4.05;1.13;;;11.80;67.70;;;;;;5068059;28;20024;-84
2021/05/31 01:39:30;;;;;;;1.77;0.90;;;11.80;68.40;;;;;;5069268;28;20020;-84
2021/05/31 01:41:56;;;;;;;4.13;1.08;;;11.80;68.80;;;;;;5078486;28;20130;-84
2021/05/31 01:44:21;;;;;;;2.67;0.90;;;11.80;68.90;;;;;;5075065;28;20040;-84
2021/05/31 01:46:49;;;;;;;4.38;1.02;;;11.80;69.10;;;;;;5065633;28;20104;-84
2021/05/31 01:49:16;;;;;;;1.90;0.80;;;11.70;68.60;;;;;;5075773;28;20107;-84
2021/05/31 01:51:43;;;;;;;4.13;0.98;;;11.70;68.50;;;;;;5075798;28;20025;-84
2021/05/31 01:54:11;;;;;;;3.92;0.88;;;11.70;69.30;;;;;;5075347;28;20028;-84
2021/05/31 01:56:40;;;;;;;2.70;0.77;;;11.60;69.30;;;;;;5088950;28;20491;-84
2021/05/31 01:59:06;;;;;;;7.55;1.25;;;11.60;69.10;;;;;;5058097;28;20150;-84
2021/05/31 02:01:33;;;;;;;2.20;1.00;;;11.60;69.70;;;;;;5080519;28;20062;-84
2021/05/31 02:03:59;;;;;;;2.22;0.73;;;11.60;69.80;;;;;;5095745;28;20469;-84
2021/05/31 02:06:26;;;;;;;3.88;0.90;;;11.60;69.70;;;;;;5097418;28;20345;-84
2021/05/31 02:08:51;;;;;;;3.45;0.70;;;11.60;70.10;;;;;;5095019;28;20073;-84
2021/05/31 02:11:27;;;;;;;1.80;0.77;;;11.50;70.10;;;;;;5091221;28;20036;-83
2021/05/31 02:13:58;;;;;;;2.55;0.73;;;11.50;69.80;;;;;;5095312;28;20074;-83
2021/05/31 02:16:29;;;;;;;2.75;0.90;;;11.80;70.30;;;;;;5096063;28;20028;-84
2021/05/31 02:18:57;;;;;;;2.28;1.05;;;11.40;70.40;;;;;;5083920;28;20413;-83
2021/05/31 02:21:24;;;;;;;2.05;0.80;;;11.40;70.90;;;;;;5073906;28;20119;-84
2021/05/31 02:23:52;;;;;;;4.82;0.98;;;11.30;70.90;;;;;;5057714;28;20066;-84
2021/05/31 02:26:21;;;;;;;2.45;0.93;;;11.30;71.00;;;;;;5075704;28;20017;-84
2021/05/31 02:28:48;;;;;;;1.80;0.90;;;11.30;71.20;;;;;;5077659;28;20032;-84
2021/05/31 02:31:18;;;;;;;2.08;0.80;;;11.20;71.30;;;;;;5096381;28;20118;-84
2021/05/31 02:33:47;;;;;;;4.35;1.10;;;11.20;71.40;;;;;;5097382;28;20063;-84
2021/05/31 02:36:13;;;;;;;2.92;0.80;;;11.10;71.60;;;;;;5102695;28;20020;-83
2021/05/31 02:38:41;;;;;;;1.90;0.70;;;11.10;71.80;;;;;;5082295;28;20033;-84
2021/05/31 02:41:07;;;;;;;2.28;0.85;;;11.10;72.30;;;;;;5081238;28;20035;-83
2021/05/31 02:43:33;;;;;;;2.17;0.80;;;11.00;72.40;;;;;;5082443;28;20092;-83
2021/05/31 02:45:59;;;;;;;2.97;0.90;;;11.00;72.40;;;;;;5083460;28;20066;-84
2021/05/31 02:48:25;;;;;;;4.68;0.95;;;11.00;72.90;;;;;;5082441;28;20024;-84
2021/05/31 02:50:51;;;;;;;2.90;1.08;;;11.00;73.10;;;;;;5063889;28;20040;-83
2021/05/31 02:53:17;;;;;;;1.88;0.60;;;11.00;72.80;;;;;;5082823;28;20027;-84
2021/05/31 02:55:43;;;;;;;2.05;0.90;;;10.90;73.20;;;;;;5082521;28;20032;-84
2021/05/31 02:58:11;;;;;;;1.85;0.88;;;10.90;73.30;;;;;;5064321;28;20017;-83
2021/05/31 03:00:36;;;;;;;5.07;0.85;;;10.90;73.50;;;;;;5081883;28;20052;-84
2021/05/31 03:03:02;;;;;;;2.58;0.90;;;10.90;73.60;;;;;;5084866;28;20024;-84
2021/05/31 03:05:29;;;;;;;2.03;0.93;;;10.90;73.40;;;;;;5089918;28;20396;-84
2021/05/31 03:07:56;;;;;;;5.93;0.70;;;10.80;74.00;;;;;;5082831;28;20025;-84
2021/05/31 03:10:23;;;;;;;1.65;0.82;;;10.80;74.00;;;;;;5064253;28;20051;-83
2021/05/31 03:12:49;;;;;;;3.03;0.90;;;10.80;74.10;;;;;;5082581;28;20025;-84
2021/05/31 03:15:17;;;;;;;2.58;0.85;;;10.80;74.30;;;;;;5064196;28;20109;-83
2021/05/31 03:17:52;;;;;;;3.83;1.08;;;10.70;74.50;;;;;;5082556;28;20503;-84
2021/05/31 03:20:20;;;;;;;2.28;1.00;;;10.70;75.10;;;;;;5082343;28;20066;-83
2021/05/31 03:22:46;;;;;;;1.88;0.75;;;10.60;75.30;;;;;;5080869;28;20021;-83
2021/05/31 03:25:12;;;;;;;2.28;1.10;;;10.60;75.50;;;;;;5081551;28;20082;-83
2021/05/31 03:27:39;;;;;;;3.35;0.90;;;10.70;75.90;;;;;;5064588;28;20039;-83
2021/05/31 03:30:08;;;;;;;2.55;0.80;;;10.60;75.90;;;;;;5064537;28;20511;-83
2021/05/31 03:32:34;;;;;;;2.60;1.00;;;10.60;76.20;;;;;;5080992;28;20059;-84
2021/05/31 03:34:59;;;;;;;2.30;0.90;;;10.60;76.50;;;;;;5082040;28;20028;-84
2021/05/31 03:37:25;;;;;;;3.33;0.90;;;10.60;76.50;;;;;;5081882;28;20035;-84
2021/05/31 03:39:50;;;;;;;3.20;1.10;;;10.60;77.00;;;;;;5080892;28;20020;-85
2021/05/31 03:42:16;;;;;;;2.55;1.10;;;10.60;77.40;;;;;;5081123;28;20031;-84
2021/05/31 03:44:42;;;;;;;2.00;0.80;;;10.60;77.60;;;;;;5086293;28;20028;-84
2021/05/31 03:47:07;;;;;;;2.70;0.90;;;10.60;77.70;;;;;;5094827;28;20032;-84
2021/05/31 03:49:33;;;;;;;2.65;0.88;;;10.60;77.80;;;;;;5078268;28;20016;-84
2021/05/31 03:51:58;;;;;;;2.55;1.10;;;10.60;78.20;;;;;;5076755;28;20560;-84
2021/05/31 03:54:24;;;;;;;4.38;0.98;;;10.70;78.10;;;;;;5076776;28;20073;-84
2021/05/31 03:56:50;;;;;;;2.00;1.00;;;10.60;78.30;;;;;;5076696;28;20640;-84
2021/05/31 03:59:15;;;;;;;2.50;1.15;;;10.60;78.40;;;;;;5076847;28;20102;-84
2021/05/31 04:01:41;;;;;;;3.58;0.98;;;10.60;78.80;;;;;;5085318;28;20028;-84
2021/05/31 04:04:06;;;;;;;2.92;1.05;;;10.60;79.10;;;;;;5078653;28;20085;-84
2021/05/31 04:11:54;;;;;;;2.55;1.10;;;10.60;80.50;;;;;;5076341;28;20031;-84
2021/05/31 04:14:20;;;;;;;3.72;1.30;;;10.50;81.30;;;;;;5076080;28;20016;-84
2021/05/31 04:16:49;;;;;;;3.72;1.02;;;10.60;81.80;;;;;;5074463;28;20431;-84
2021/05/31 04:19:16;;;;;;;3.20;1.20;;;10.60;82.00;;;;;;5076811;28;20020;-84
2021/05/31 04:21:45;;;;;;;3.10;1.38;;;10.70;82.50;;;;;;5058609;28;20060;-84
2021/05/31 04:24:11;;;;;;;3.03;1.10;;;10.70;82.50;;;;;;5075928;28;20103;-85
2021/05/31 04:26:39;;;;;;;3.17;1.30;;;10.80;82.60;;;;;;5075065;28;20052;-84
2021/05/31 04:29:07;;;;;;;3.75;1.08;;;10.90;82.80;;;;;;5077083;28;20032;-84
2021/05/31 04:31:33;;;;;;;2.92;1.25;;;11.00;83.10;;;;;;5077251;28;20061;-84
2021/05/31 04:34:00;;;;;;;2.50;1.10;;;11.10;83.30;;;;;;5076441;28;20023;-84
2021/05/31 04:36:31;;;;;;;4.22;1.50;;;11.20;83.60;;;;;;5077523;28;20021;-84
2021/05/31 04:38:56;;;;;;;2.83;1.30;;;11.20;83.60;;;;;;5075674;28;20492;-84
2021/05/31 04:41:22;;;;;;;5.20;1.45;;;11.30;83.20;;;;;;5075239;28;20028;-84
2021/05/31 04:43:47;;;;;;;3.40;1.45;;;11.30;83.80;;;;;;5081808;28;20028;-84
2021/05/31 04:46:13;;;;;;;3.65;1.33;;;11.40;84.40;;;;;;5080124;28;20068;-84
2021/05/31 04:48:39;;;;;;;5.47;1.45;;;11.40;83.90;;;;;;5078185;28;20093;-84
2021/05/31 04:51:04;;;;;;;3.10;1.40;;;11.50;84.10;;;;;;5087173;28;20048;-84
2021/05/31 04:53:31;;;;;;;4.05;1.60;;;11.60;83.80;;;;;;5076004;28;20045;-84
2021/05/31 04:55:59;;;;;;;2.90;1.23;;;11.70;84.50;;;;;;5076026;28;20028;-84
2021/05/31 04:58:25;;;;;;;2.92;1.38;;;11.80;83.90;;;;;;5078661;28;20036;-84
2021/05/31 05:00:51;;;;;;;3.00;1.25;;;11.90;83.90;;;;;;5065649;28;20500;-84
2021/05/31 05:03:18;;;;;;;3.30;1.23;;;11.90;84.30;;;;;;5057905;28;20052;-85
2021/05/31 05:05:44;;;;;;;2.70;1.23;;;11.90;84.10;;;;;;5058838;28;20048;-84
2021/05/31 05:08:10;;;;;;;2.83;1.40;;;12.00;83.50;;;;;;5058551;28;20034;-84
2021/05/31 05:10:35;;;;;;;3.35;1.35;;;12.10;83.40;;;;;;5076103;28;20028;-84
2021/05/31 05:13:01;;;;;;;2.60;1.10;;;12.30;84.10;;;;;;5058232;28;20024;-84
2021/05/31 05:15:27;;;;;;;3.53;1.45;;;12.30;84.00;;;;;;5077516;28;20020;-84
2021/05/31 05:17:54;;;;;;;3.35;1.30;;;12.40;83.30;;;;;;5077911;28;20024;-84
2021/05/31 05:20:21;;;;;;;5.82;1.30;;;12.40;82.80;;;;;;5075923;28;20410;-85
2021/05/31 05:22:47;;;;;;;3.25;1.40;;;12.50;83.10;;;;;;5057880;28;20039;-84
2021/05/31 05:25:14;;;;;;;4.18;1.65;;;12.50;82.50;;;;;;5072544;28;20092;-84
2021/05/31 05:27:42;;;;;;;4.45;1.45;;;12.60;82.60;;;;;;5076283;28;20361;-84
2021/05/31 05:30:08;;;;;;;4.03;1.40;;;12.80;82.40;;;;;;5086557;22;20040;-81
2021/05/31 05:32:36;;;;;;;4.15;1.30;;;12.90;82.00;;;;;;5073309;28;20024;-81
2021/05/31 05:35:19;;;;;;;3.65;1.50;;;12.90;81.60;;;;;;5074858;28;20030;-81
2021/05/31 05:46:03;;;;;;;3.30;1.30;;;13.30;80.90;;;;;;5067371;28;20132;-81
2021/05/31 05:48:29;;;;;;;2.47;1.38;;;13.40;81.70;;;;;;5038699;28;20025;-81
2021/05/31 05:51:09;;;;;;;3.80;1.30;;;13.50;81.20;;;;;;5059318;28;20029;-80
2021/05/31 05:53:37;;;;;;;3.30;1.23;;;13.60;81.50;;;;;;5055552;28;20024;-80
2021/05/31 05:56:06;;;;;;;2.90;1.40;;;13.90;81.10;;;;;;5071063;28;20024;-80
2021/05/31 05:58:32;;;;;;;3.08;1.25;;;13.90;80.80;;;;;;5036284;28;20335;-81
2021/05/31 06:00:59;;;;;;;5.22;1.30;;;14.10;79.90;;;;;;5053900;28;20028;-80
2021/05/31 06:03:26;;;;;;;2.55;1.23;;;14.30;79.60;;;;;;5035788;28;20048;-81
2021/05/31 06:05:53;;;;;;;3.05;1.17;;;14.40;80.20;;;;;;5054600;28;20512;-81
2021/05/31 06:08:19;;;;;;;2.75;1.25;;;14.40;77.80;;;;;;5054098;28;20021;-82
2021/05/31 06:10:45;;;;;;;2.97;1.30;;;14.50;77.10;;;;;;5052125;28;20032;-81
2021/05/31 06:13:11;;;;;;;2.95;1.40;;;14.50;76.80;;;;;;5085428;28;20126;-81
2021/05/31 06:15:37;;;;;;;3.90;1.15;;;14.50;75.00;;;;;;5054663;28;20028;-81
2021/05/31 06:18:04;;;;;;;2.70;1.30;;;14.50;74.50;;;;;;5054226;28;20167;-81
2021/05/31 06:20:30;;;;;;;3.33;1.20;;;14.60;75.40;;;;;;5088761;28;20506;-81
2021/05/31 06:22:56;;;;;;;1.83;1.10;;;14.60;74.80;;;;;;5090983;28;20040;-81
2021/05/31 06:25:22;;;;;;;2.28;1.05;;;14.60;73.50;;;;;;5075857;28;20035;-81
2021/05/31 06:27:47;;;;;;;2.60;1.00;;;14.70;74.20;;;;;;5076927;28;20024;-81
2021/05/31 06:30:14;;;;;;;3.35;1.30;;;14.90;73.40;;;;;;5051250;28;20040;-81
2021/05/31 06:32:40;;;;;;;2.47;1.10;;;15.00;72.90;;;;;;5070095;28;20096;-81
2021/05/31 06:35:06;;;;;;;2.17;1.08;;;15.00;72.70;;;;;;5059183;28;20067;-81
2021/05/31 06:37:38;;;;;;;3.33;1.15;;;15.00;71.90;;;;;;5072960;28;20017;-81
2021/05/31 06:40:14;;;;;;;2.60;1.15;;;15.00;72.10;;;;;;5073483;28;20025;-81
2021/05/31 06:42:43;;;;;;;2.25;0.90;;;15.10;73.50;;;;;;5074816;28;20028;-82
2021/05/31 06:45:12;;;;;;;2.13;0.90;;;15.30;72.30;;;;;;5057182;28;20207;-80
2021/05/31 06:47:38;;;;;;;3.15;0.93;;;15.50;70.90;;;;;;5075132;28;20046;-81
2021/05/31 06:50:06;;;;;;;2.90;1.10;;;15.50;70.70;;;;;;5071663;28;20032;-81
2021/05/31 06:52:32;;;;;;;2.45;0.90;;;15.60;70.80;;;;;;5067746;28;20020;-82
2021/05/31 06:54:58;;;;;;;4.70;0.98;;;15.60;70.30;;;;;;5072449;28;20416;-82
2021/05/31 06:57:24;;;;;;;2.55;0.93;;;15.60;70.10;;;;;;5073185;28;20052;-81
2021/05/31 06:59:50;;;;;;;2.50;0.95;;;15.70;71.00;;;;;;5053410;28;20505;-81
2021/05/31 07:02:15;;;;;;;2.80;0.95;;;16.00;71.40;;;;;;5062604;28;20018;-82
2021/05/31 07:04:41;;;;;;;2.33;1.00;;;16.20;71.10;;;;;;5086662;28;20031;-83
2021/05/31 07:07:07;;;;;;;3.63;1.40;;;16.20;70.90;;;;;;5039878;28;20021;-81
2021/05/31 07:09:33;;;;;;;3.53;1.50;;;16.40;69.40;;;;;;5052124;28;20029;-82
2021/05/31 07:11:58;;;;;;;3.42;1.40;;;16.50;68.50;;;;;;5051495;28;20480;-83
2021/05/31 07:14:32;;;;;;;3.20;1.25;;;16.50;67.40;;;;;;5050947;28;20023;-82
2021/05/31 07:16:59;;;;;;;2.13;1.00;;;16.30;68.00;;;;;;5076184;28;20094;-82
2021/05/31 07:19:25;;;;;;;5.32;1.52;;;16.40;67.30;;;;;;5074112;28;20100;-82
2021/05/31 07:21:51;;;;;;;2.55;1.00;;;16.30;67.50;;;;;;5073592;28;20035;-82
2021/05/31 07:24:17;;;;;;;3.55;1.55;;;16.30;67.40;;;;;;5079430;28;20024;-83
2021/05/31 07:26:43;;;;;;;2.33;0.85;;;16.50;67.30;;;;;;5075027;28;20033;-81
2021/05/31 07:29:09;;;;;;;1.92;0.80;;;16.70;65.30;;;;;;5077255;28;20044;-81
2021/05/31 07:31:35;;;;;;;2.20;0.75;;;16.90;64.40;;;;;;5056414;28;20071;-81
2021/05/31 07:34:02;;;;;;;2.13;0.85;;;16.90;62.70;;;;;;5070720;28;20071;-80
2021/05/31 07:36:28;;;;;;;2.60;0.60;;;16.90;64.80;;;;;;5071598;28;20034;-80
2021/05/31 07:38:54;;;;;;;1.40;0.77;;;17.00;62.60;;;;;;5051817;28;20060;-79
2021/05/31 07:41:20;;;;;;;3.10;0.90;;;17.10;63.20;;;;;;5085823;28;20024;-82
2021/05/31 07:43:46;;;;;;;2.22;0.65;;;17.30;61.20;;;;;;5097081;28;20074;-82
2021/05/31 07:46:13;;;;;;;3.25;0.70;;;17.40;61.80;;;;;;5079947;28;20582;-82
2021/05/31 07:48:41;;;;;;;5.68;0.75;;;17.40;59.30;;;;;;5058974;28;20505;-82
2021/05/31 07:51:17;;;;;;;2.13;0.70;;;17.60;59.10;;;;;;5052561;28;20439;-82
2021/05/31 07:53:45;;;;;;;2.40;0.70;;;17.60;56.90;;;;;;5068900;28;20380;-82
2021/05/31 07:56:12;;;;;;;2.00;0.75;;;17.60;57.50;;;;;;5084597;28;20089;-81
2021/05/31 07:58:38;;;;;;;2.08;0.82;;;17.50;57.80;;;;;;5088160;28;20366;-84
2021/05/31 08:01:03;;;;;;;1.38;0.60;;;17.50;57.00;;;;;;5073297;28;20028;-82
2021/05/31 08:03:30;;;;;;;1.60;0.63;;;17.60;55.90;;;;;;5072473;28;20029;-83
2021/05/31 08:05:56;;;;;;;1.70;0.82;;;17.40;55.70;;;;;;5076645;28;20079;-83
2021/05/31 08:08:22;;;;;;;2.20;0.80;;;17.50;57.10;;;;;;5074941;28;20078;-83
2021/05/31 08:10:48;;;;;;;2.55;0.90;;;17.60;56.80;;;;;;5064980;28;20024;-83
2021/05/31 08:13:13;;;;;;;3.15;0.82;;;17.70;56.40;;;;;;5076487;28;20025;-82
2021/05/31 08:15:39;;;;;;;1.95;0.70;;;17.70;56.60;;;;;;5075718;28;20017;-83
2021/05/31 08:18:05;;;;;;;1.88;0.60;;;17.70;55.00;;;;;;5063407;28;20631;-83
2021/05/31 08:20:34;;;;;;;2.83;0.77;;;17.70;53.90;;;;;;5073138;28;20046;-83
2021/05/31 08:22:59;;;;;;;2.05;0.88;;;17.80;54.70;;;;;;5075468;28;20051;-83
2021/05/31 08:25:25;;;;;;;1.45;0.70;;;17.80;54.40;;;;;;5057371;28;20051;-83
2021/05/31 08:27:52;;;;;;;1.45;0.60;;;18.00;56.40;;;;;;5064676;28;20027;-83
2021/05/31 08:30:18;;;;;;;1.55;0.50;;;18.20;55.20;;;;;;5054034;28;20117;-83
2021/05/31 08:32:44;;;;;;;1.98;0.70;;;18.30;55.60;;;;;;5055279;28;20577;-82
2021/05/31 08:35:09;;;;;;;1.38;0.60;;;18.40;53.80;;;;;;5055128;28;20021;-83
2021/05/31 08:37:35;;;;;;;2.28;0.73;;;18.70;55.50;;;;;;5059414;28;20539;-83
2021/05/31 08:40:01;;;;;;;2.38;0.77;;;18.60;54.50;;;;;;5054421;28;20040;-82
2021/05/31 08:42:26;;;;;;;2.25;0.77;;;18.70;54.40;;;;;;5053245;28;20388;-83
2021/05/31 08:44:52;;;;;;;2.50;0.75;;;18.70;55.00;;;;;;5054872;28;20025;-83
2021/05/31 08:47:19;;;;;;;1.42;0.60;;;18.70;55.60;;;;;;5055799;28;20024;-83
2021/05/31 08:49:45;;;;;;;2.25;0.73;;;18.80;54.00;;;;;;5054281;28;20079;-83
2021/05/31 08:52:11;;;;;;;2.58;0.80;;;19.00;55.70;;;;;;5037571;28;20025;-83
2021/05/31 08:54:36;;;;;;;3.03;0.80;;;19.10;57.10;;;;;;5055844;28;20392;-83
2021/05/31 08:57:02;;;;;;;1.90;0.90;;;19.10;56.40;;;;;;5056014;28;20021;-83
2021/05/31 08:59:28;;;;;;;2.13;0.73;;;19.20;56.30;;;;;;5072324;28;20052;-83
2021/05/31 09:01:53;;;;;;;2.03;0.70;;;19.40;57.30;;;;;;5057023;28;20028;-83
2021/05/31 09:04:19;;;;;;;2.30;0.90;;;19.30;56.70;;;;;;5054997;28;20369;-83
2021/05/31 09:06:58;;;;;;;1.98;0.60;;;19.30;54.90;;;;;;5053876;28;20029;-83
2021/05/31 09:09:38;;;;;;;1.98;0.73;;;19.30;53.80;;;;;;5055082;28;20106;-83
2021/05/31 09:12:06;;;;;;;4.63;1.00;;;19.20;53.90;;;;;;5057570;28;20029;-83
2021/05/31 09:14:32;;;;;;;2.25;0.60;;;19.40;53.10;;;;;;5037970;28;20025;-83
2021/05/31 09:16:58;;;;;;;4.03;1.00;;;19.60;53.80;;;;;;5039007;28;20099;-83
2021/05/31 09:19:23;;;;;;;2.00;1.05;;;19.60;52.10;;;;;;5055437;28;20028;-83
2021/05/31 09:21:49;;;;;;;1.30;0.70;;;19.80;52.10;;;;;;5054770;28;20033;-83
2021/05/31 09:24:24;;;;;;;1.85;0.82;;;20.00;51.60;;;;;;5053518;28;20017;-83
2021/05/31 09:26:56;;;;;;;1.52;0.80;;;20.00;51.80;;;;;;5053879;28;20033;-83
2021/05/31 09:29:21;;;;;;;2.50;0.85;;;19.70;52.40;;;;;;5055224;28;20033;-83
2021/05/31 09:32:04;;;;;;;3.00;1.00;;;19.50;53.60;;;;;;5055164;28;20074;-83
2021/05/31 09:34:31;;;;;;;2.25;0.73;;;19.50;54.10;;;;;;5054785;28;20028;-83
2021/05/31 09:37:04;;;;;;;2.70;0.95;;;19.80;53.80;;;;;;5055070;28;20040;-83
2021/05/31 09:39:29;;;;;;;1.40;0.60;;;19.90;53.40;;;;;;5054667;28;20509;-83
2021/05/31 09:42:11;;;;;;;2.58;0.88;;;19.80;51.50;;;;;;5054170;28;20025;-83
2021/05/31 09:44:38;;;;;;;3.67;0.80;;;19.80;52.50;;;;;;5053342;28;20037;-83
2021/05/31 09:47:04;;;;;;;2.08;0.88;;;20.10;53.20;;;;;;5052362;28;20029;-83
2021/05/31 09:49:29;;;;;;;1.35;0.68;;;20.40;51.50;;;;;;5054782;28;20381;-84
2021/05/31 09:51:55;;;;;;;2.08;0.70;;;20.40;51.10;;;;;;5054592;28;20025;-83
2021/05/31 09:54:43;;;;;;;3.17;0.93;;;20.30;50.80;;;;;;5052507;28;20028;-83
2021/05/31 09:57:15;;;;;;;2.15;0.88;;;20.50;50.80;;;;;;5052832;28;20035;-83
2021/05/31 09:59:43;;;;;;;2.13;0.88;;;20.60;50.30;;;;;;5072844;28;20100;-83
2021/05/31 10:02:11;;;;;;;2.80;0.80;;;20.50;50.60;;;;;;5071106;28;20025;-84
2021/05/31 10:05:14;;;;;;;2.25;0.85;;;20.60;51.20;;;;;;5052549;28;20032;-83
2021/05/31 10:09:58;;;;;;;1.38;0.75;;;20.70;50.10;;;;;;5057538;28;20032;-84
2021/05/31 10:12:25;;;;;;;3.15;0.90;;;20.80;49.70;;;;;;5045081;28;20173;-84
2021/05/31 10:14:52;;;;;;;1.92;0.88;;;20.90;49.20;;;;;;5054995;28;20094;-84
2021/05/31 10:17:23;;;;;;;2.30;1.15;;;20.70;49.30;;;;;;5054293;28;20724;-84
2021/05/31 10:19:49;;;;;;;2.60;1.02;;;20.80;49.00;;;;;;5055293;28;20028;-84
2021/05/31 10:22:15;;;;;;;2.00;0.80;;;21.00;49.20;;;;;;5054190;28;20090;-84
2021/05/31 10:24:41;;;;;;;1.77;0.80;;;21.00;48.50;;;;;;5054171;28;20116;-84
2021/05/31 10:27:13;;;;;;;2.97;1.20;;;21.10;50.10;;;;;;5054813;28;20040;-84
2021/05/31 10:29:41;;;;;;;2.13;1.00;;;20.90;49.10;;;;;;5054577;28;20393;-84
2021/05/31 10:32:10;;;;;;;3.33;0.90;;;21.20;48.50;;;;;;5054430;28;20055;-83
2021/05/31 10:34:50;;;;;;;2.35;0.80;;;21.40;48.20;;;;;;5042775;28;20017;-84
2021/05/31 10:37:17;;;;;;;2.15;0.88;;;21.50;49.00;;;;;;5057931;28;20021;-84
2021/05/31 10:39:43;;;;;;;2.15;0.75;;;21.40;49.30;;;;;;5058310;28;20021;-83
2021/05/31 10:42:09;;;;;;;13.00;4.13;;;21.70;48.90;;;;;;5038724;28;20463;-84
2021/05/31 10:44:35;;;;;;;2.03;0.80;;;21.90;47.20;;;;;;5056488;28;20056;-84
2021/05/31 10:47:11;;;;;;;3.30;1.05;;;22.00;46.30;;;;;;5057457;28;20039;-84
2021/05/31 10:49:37;;;;;;;1.67;0.80;;;21.90;46.80;;;;;;5055089;28;20025;-84
2021/05/31 10:52:03;;;;;;;1.75;0.80;;;21.60;46.60;;;;;;5037876;28;20409;-84
2021/05/31 10:54:35;;;;;;;1.65;0.75;;;21.60;46.40;;;;;;5040630;28;20025;-84
2021/05/31 10:57:09;;;;;;;4.18;1.00;;;21.40;46.40;;;;;;5065085;28;20025;-83
2021/05/31 10:59:46;;;;;;;3.58;0.90;;;21.60;47.30;;;;;;5081761;28;20484;-84
2021/05/31 11:02:25;;;;;;;2.50;1.00;;;21.90;47.00;;;;;;5083621;28;20021;-84
2021/05/31 11:04:50;;;;;;;1.33;0.60;;;22.00;46.70;;;;;;5047344;28;20096;-84
2021/05/31 11:07:27;;;;;;;2.85;0.77;;;22.30;45.70;;;;;;5060237;28;20531;-84
2021/05/31 11:09:54;;;;;;;2.33;0.65;;;22.40;44.90;;;;;;5060494;28;20500;-84
2021/05/31 11:12:31;;;;;;;1.58;0.70;;;22.70;44.00;;;;;;5053159;28;20032;-84
2021/05/31 11:15:11;;;;;;;2.05;0.80;;;22.60;45.20;;;;;;5056257;28;20074;-84
2021/05/31 11:17:51;;;;;;;1.85;0.57;;;22.50;44.60;;;;;;5056387;28;20025;-84
2021/05/31 11:20:19;;;;;;;3.90;0.70;;;22.50;45.20;;;;;;5057126;28;20037;-84
2021/05/31 11:22:59;;;;;;;2.13;0.80;;;22.50;44.60;;;;;;5039805;28;20036;-84
2021/05/31 11:25:27;;;;;;;3.00;1.00;;;22.70;45.20;;;;;;5058582;28;20516;-84
2021/05/31 11:27:55;;;;;;;2.55;0.90;;;23.00;45.60;;;;;;5059187;28;20041;-83
2021/05/31 11:30:25;;;;;;;1.80;0.77;;;22.80;43.80;;;;;;5073101;22;20047;-85
2021/05/31 11:32:53;;;;;;;1.52;0.60;;;22.90;44.30;;;;;;5035521;28;20493;-85
2021/05/31 11:35:19;;;;;;;2.85;1.00;;;23.00;45.20;;;;;;5036990;28;20353;-85
2021/05/31 11:37:47;;;;;;;2.03;0.73;;;23.30;42.80;;;;;;5074744;28;20042;-85
2021/05/31 11:40:27;;;;;;;1.67;0.80;;;23.40;43.00;;;;;;5075652;28;20495;-84
2021/05/31 11:42:55;;;;;;;1.83;0.70;;;23.20;43.40;;;;;;5058207;28;20035;-85
2021/05/31 11:45:23;;;;;;;2.50;0.70;;;23.40;43.10;;;;;;5071947;28;20277;-85
2021/05/31 11:48:12;;;;;;;1.90;0.70;;;23.30;42.00;;;;;;5074790;28;20118;-85
2021/05/31 11:50:40;;;;;;;2.05;0.73;;;23.50;42.90;;;;;;5054146;28;20088;-85
2021/05/31 11:53:11;;;;;;;2.67;0.80;;;23.70;43.80;;;;;;5074441;28;20157;-86
2021/05/31 11:55:38;;;;;;;1.83;0.70;;;23.70;43.30;;;;;;5072954;28;20048;-85
2021/05/31 11:58:04;;;;;;;1.00;0.60;;;23.90;44.60;;;;;;5074040;28;20330;-85
2021/05/31 12:00:33;;;;;;;1.42;0.60;;;23.80;43.80;;;;;;5056386;28;20106;-85
2021/05/31 12:02:59;;;;;;;1.65;0.70;;;24.20;42.50;;;;;;5055525;28;20086;-86
2021/05/31 12:05:34;;;;;;;2.72;0.82;;;24.50;41.60;;;;;;5073985;28;20085;-85
2021/05/31 12:08:10;;;;;;;1.70;0.70;;;24.80;42.30;;;;;;5073605;28;20021;-85
2021/05/31 12:10:41;;;;;;;2.38;0.93;;;24.90;40.80;;;;;;5072870;28;20040;-85
2021/05/31 12:13:07;;;;;;;2.53;0.85;;;24.70;40.80;;;;;;5056642;28;20041;-85
2021/05/31 12:15:34;;;;;;;1.38;0.70;;;24.70;40.60;;;;;;5074029;28;20109;-85
2021/05/31 12:18:14;;;;;;;4.38;0.90;;;24.70;41.30;;;;;;5056539;28;20024;-85
2021/05/31 12:20:41;;;;;;;2.63;0.82;;;25.10;40.40;;;;;;5047931;28;20120;-85
2021/05/31 12:23:21;;;;;;;1.77;0.70;;;25.10;40.40;;;;;;5063217;28;20070;-85
2021/05/31 12:25:48;;;;;;;1.70;0.80;;;25.30;41.20;;;;;;5074496;28;20012;-85
2021/05/31 12:28:15;;;;;;;1.52;0.60;;;24.90;40.30;;;;;;5073403;28;20672;-85
2021/05/31 12:30:45;;;;;;;1.40;0.60;;;25.30;39.80;;;;;;5074853;28;20024;-84
2021/05/31 12:33:13;;;;;;;1.70;0.70;;;25.10;40.10;;;;;;5055514;28;20020;-86
2021/05/31 12:35:41;;;;;;;2.28;1.00;;;25.30;39.90;;;;;;5071253;28;20113;-85
2021/05/31 12:38:07;;;;;;;2.70;1.27;;;25.30;40.00;;;;;;5054111;28;20025;-85
2021/05/31 12:40:35;;;;;;;1.80;0.70;;;25.20;40.60;;;;;;5071427;28;20442;-85
2021/05/31 12:43:01;;;;;;;1.92;0.73;;;25.40;40.50;;;;;;5054706;28;20021;-85
2021/05/31 12:45:26;;;;;;;3.25;0.82;;;25.40;40.50;;;;;;5070923;28;20070;-85
2021/05/31 12:47:54;;;;;;;2.38;0.82;;;25.40;40.70;;;;;;5071340;28;20172;-85
2021/05/31 12:50:25;;;;;;;1.60;0.60;;;25.60;41.50;;;;;;5072371;28;20139;-86
2021/05/31 12:52:51;;;;;;;1.55;0.77;;;25.90;40.30;;;;;;5072714;28;20078;-85
2021/05/31 12:55:27;;;;;;;2.88;0.80;;;26.10;40.70;;;;;;5047499;28;20477;-84
2021/05/31 12:57:54;;;;;;;3.42;0.80;;;26.20;41.30;;;;;;5064987;28;20043;-86
2021/05/31 13:00:25;;;;;;;1.92;0.70;;;25.90;40.10;;;;;;5054148;28;20466;-86
2021/05/31 13:02:52;;;;;;;;;;;26.00;41.20;;;;;;5054663;28;20029;-85
2021/05/31 13:05:21;;;;;;;2.97;0.98;;;26.10;40.00;;;;;;5062907;28;20472;-85
2021/05/31 13:07:49;;;;;;;2.97;0.88;;;25.80;39.50;;;;;;5072306;28;20396;-85
2021/05/31 13:10:19;;;;;;;1.30;0.63;;;25.90;39.90;;;;;;5070696;28;20025;-85